createdAt,value
2019-03-30T00:02:21.620Z,7.40
2019-03-30T00:04:52.405Z,7.30
2019-03-30T00:07:23.174Z,7.30
2019-03-30T00:09:53.932Z,7.30
2019-03-30T00:12:24.837Z,7.30
2019-03-30T00:14:55.528Z,7.30
2019-03-30T00:17:27.368Z,7.10
2019-03-30T00:19:58.181Z,7.10
2019-03-30T00:22:29.026Z,7.10
2019-03-30T00:25:00.040Z,7.10
2019-03-30T00:27:30.936Z,7.10
2019-03-30T00:30:01.839Z,7.10
2019-03-30T00:32:32.626Z,6.90
2019-03-30T00:35:04.598Z,6.70
2019-03-30T00:37:35.533Z,6.70
2019-03-30T00:40:06.467Z,6.80
2019-03-30T00:42:37.248Z,6.70
2019-03-30T00:45:08.410Z,6.70
2019-03-30T00:47:39.288Z,6.60
2019-03-30T00:50:10.536Z,6.70
2019-03-30T00:52:41.469Z,6.70
2019-03-30T00:55:12.372Z,6.50
2019-03-30T00:57:43.182Z,6.50
2019-03-30T01:00:16.780Z,6.50
2019-03-30T01:02:48.299Z,6.60
2019-03-30T01:05:19.244Z,6.60
2019-03-30T01:07:50.099Z,6.40
2019-03-30T01:10:21.213Z,6.40
2019-03-30T01:12:52.866Z,6.60
2019-03-30T01:15:23.820Z,6.60
2019-03-30T01:17:55.716Z,6.60
2019-03-30T01:20:26.477Z,6.60
2019-03-30T01:22:57.169Z,6.40
2019-03-30T01:25:27.955Z,6.30
2019-03-30T01:27:58.830Z,6.40
2019-03-30T01:30:29.525Z,6.40
2019-03-30T01:33:00.450Z,6.40
2019-03-30T01:35:31.310Z,6.40
2019-03-30T01:38:02.191Z,6.40
2019-03-30T01:40:33.161Z,6.30
2019-03-30T01:43:05.232Z,6.40
2019-03-30T01:45:35.938Z,6.20
2019-03-30T01:48:06.863Z,6.30
2019-03-30T01:50:37.956Z,6.40
2019-03-30T01:53:08.806Z,6.10
2019-03-30T01:55:39.857Z,6.00
2019-03-30T01:58:10.532Z,6.10
2019-03-30T02:00:41.464Z,6.50
2019-03-30T02:03:12.315Z,6.30
2019-03-30T02:05:43.015Z,6.30
2019-03-30T02:08:13.812Z,6.30
2019-03-30T02:10:48.471Z,6.30
2019-03-30T02:13:19.226Z,6.10
2019-03-30T02:15:50.099Z,6.00
2019-03-30T02:18:20.872Z,5.80
2019-03-30T02:20:51.834Z,5.90
2019-03-30T02:23:22.602Z,6.00
2019-03-30T02:25:54.402Z,6.10
2019-03-30T02:28:25.280Z,6.00
2019-03-30T02:30:56.078Z,6.10
2019-03-30T02:33:26.921Z,6.10
2019-03-30T02:35:57.865Z,6.10
2019-03-30T02:38:28.726Z,6.10
2019-03-30T02:40:59.417Z,6.20
2019-03-30T02:43:30.170Z,6.40
2019-03-30T02:46:00.999Z,6.20
2019-03-30T02:48:31.844Z,6.00
2019-03-30T02:51:03.629Z,5.90
2019-03-30T02:53:34.330Z,5.80
2019-03-30T02:56:05.184Z,5.80
2019-03-30T02:58:35.873Z,5.90
2019-03-30T03:01:06.834Z,5.70
2019-03-30T03:03:37.674Z,5.80
2019-03-30T03:06:08.506Z,5.70
2019-03-30T03:08:39.386Z,5.50
2019-03-30T03:11:10.260Z,5.60
2019-03-30T03:13:41.053Z,5.50
2019-03-30T03:16:11.848Z,5.40
2019-03-30T03:18:42.630Z,5.40
2019-03-30T03:21:13.565Z,5.40
2019-03-30T03:23:44.335Z,5.40
2019-03-30T03:26:15.069Z,5.50
2019-03-30T03:28:45.842Z,5.40
2019-03-30T03:31:16.529Z,5.30
2019-03-30T03:33:48.443Z,5.40
2019-03-30T03:36:19.934Z,5.60
2019-03-30T03:38:50.908Z,5.60
2019-03-30T03:41:21.666Z,5.70
2019-03-30T03:43:52.503Z,5.80
2019-03-30T03:46:23.309Z,5.70
2019-03-30T03:48:54.157Z,5.90
2019-03-30T03:51:26.844Z,5.90
2019-03-30T03:53:58.160Z,6.00
2019-03-30T03:56:30.764Z,5.90
2019-03-30T03:59:03.388Z,6.00
2019-03-30T04:01:36.334Z,6.00
2019-03-30T04:04:10.908Z,5.80
2019-03-30T04:06:44.464Z,5.80
2019-03-30T04:09:18.549Z,5.70
2019-03-30T04:11:53.130Z,5.80
2019-03-30T04:14:26.973Z,5.60
2019-03-30T04:16:57.745Z,5.60
2019-03-30T04:19:28.687Z,5.30
2019-03-30T04:21:59.611Z,5.60
2019-03-30T04:24:30.449Z,5.70
2019-03-30T04:27:01.253Z,5.60
2019-03-30T04:29:32.024Z,5.70
2019-03-30T04:32:02.938Z,5.70
2019-03-30T04:34:33.675Z,5.60
2019-03-30T04:37:04.537Z,5.50
2019-03-30T04:39:35.279Z,5.60
2019-03-30T04:42:06.863Z,5.60
2019-03-30T04:44:37.625Z,5.50
2019-03-30T04:47:08.541Z,5.50
2019-03-30T04:49:39.266Z,5.60
2019-03-30T04:52:11.123Z,5.50
2019-03-30T04:54:41.878Z,5.60
2019-03-30T04:57:12.684Z,5.60
2019-03-30T04:59:43.528Z,5.60
2019-03-30T05:02:14.302Z,5.60
2019-03-30T05:04:45.240Z,5.70
2019-03-30T05:07:16.084Z,5.60
2019-03-30T05:09:46.933Z,5.70
2019-03-30T05:12:17.653Z,5.60
2019-03-30T05:14:48.374Z,5.70
2019-03-30T05:17:19.063Z,5.70
2019-03-30T05:19:49.810Z,5.70
2019-03-30T05:22:21.430Z,5.60
2019-03-30T05:24:52.206Z,5.60
2019-03-30T05:27:23.211Z,5.70
2019-03-30T05:29:54.107Z,5.70
2019-03-30T05:32:24.863Z,5.70
2019-03-30T05:34:55.628Z,5.70
2019-03-30T05:37:26.396Z,5.90
2019-03-30T05:39:57.236Z,6.00
2019-03-30T05:42:28.872Z,6.00
2019-03-30T05:44:59.566Z,6.00
2019-03-30T05:47:30.331Z,6.20
2019-03-30T05:50:01.111Z,6.20
2019-03-30T05:52:31.877Z,6.40
2019-03-30T05:55:02.742Z,6.30
2019-03-30T05:57:33.588Z,6.50
2019-03-30T06:00:05.171Z,6.80
2019-03-30T06:02:36.099Z,7.00
2019-03-30T06:05:07.530Z,6.80
2019-03-30T06:07:38.226Z,6.90
2019-03-30T06:10:09.179Z,6.80
2019-03-30T06:12:40.026Z,6.70
2019-03-30T06:15:11.536Z,6.70
2019-03-30T06:17:43.625Z,6.90
2019-03-30T06:20:14.720Z,7.10
2019-03-30T06:22:45.429Z,7.50
2019-03-30T06:25:16.205Z,7.80
2019-03-30T06:27:47.056Z,8.10
2019-03-30T06:30:21.277Z,8.10
2019-03-30T06:32:52.441Z,8.10
2019-03-30T06:35:25.305Z,7.90
2019-03-30T06:37:56.222Z,7.90
2019-03-30T06:40:27.072Z,7.70
2019-03-30T06:42:57.989Z,7.80
2019-03-30T06:45:32.923Z,8.00
2019-03-30T06:48:03.763Z,8.10
2019-03-30T06:50:34.685Z,8.00
2019-03-30T06:53:05.838Z,8.00
2019-03-30T06:55:36.619Z,8.10
2019-03-30T06:58:07.468Z,8.40
2019-03-30T07:00:39.694Z,8.70
2019-03-30T07:03:10.751Z,9.20
2019-03-30T07:05:43.483Z,9.10
2019-03-30T07:08:17.129Z,9.30
2019-03-30T07:10:49.324Z,9.10
2019-03-30T07:13:20.682Z,10.10
2019-03-30T07:15:51.826Z,9.90
2019-03-30T07:18:23.764Z,9.70
2019-03-30T07:20:54.525Z,9.80
2019-03-30T07:23:25.219Z,9.90
2019-03-30T07:25:56.017Z,10.10
2019-03-30T07:28:26.898Z,10.30
2019-03-30T07:30:57.591Z,10.40
2019-03-30T07:33:28.468Z,10.40
2019-03-30T07:35:59.163Z,10.10
2019-03-30T07:38:29.938Z,10.30
2019-03-30T07:41:00.804Z,10.40
2019-03-30T07:43:31.512Z,10.60
2019-03-30T07:46:02.525Z,10.90
2019-03-30T07:48:33.323Z,10.90
2019-03-30T07:51:04.296Z,11.10
2019-03-30T07:53:44.387Z,10.70
2019-03-30T07:56:08.950Z,10.50
2019-03-30T07:58:40.011Z,10.50
2019-03-30T08:01:11.592Z,11.10
2019-03-30T08:03:42.373Z,11.30
2019-03-30T08:06:13.150Z,11.30
2019-03-30T08:08:43.928Z,11.40
2019-03-30T08:11:14.721Z,11.80
2019-03-30T08:13:45.690Z,11.60
2019-03-30T08:16:16.453Z,11.60
2019-03-30T08:18:47.241Z,11.40
2019-03-30T08:21:18.128Z,11.50
2019-03-30T08:23:48.955Z,11.60
2019-03-30T08:26:21.202Z,12.00
2019-03-30T08:28:51.990Z,12.30
2019-03-30T08:31:22.843Z,12.30
2019-03-30T08:33:55.408Z,12.60
2019-03-30T08:36:26.248Z,12.60
2019-03-30T08:38:57.065Z,12.50
2019-03-30T08:41:27.817Z,12.60
2019-03-30T08:43:58.619Z,12.70
2019-03-30T08:46:29.321Z,12.90
2019-03-30T08:49:00.121Z,13.10
2019-03-30T08:51:32.042Z,13.10
2019-03-30T08:54:02.872Z,13.20
2019-03-30T08:56:33.642Z,13.10
2019-03-30T08:59:04.612Z,12.90
2019-03-30T09:01:35.401Z,13.00
2019-03-30T09:04:06.110Z,13.00
2019-03-30T09:06:36.899Z,13.40
2019-03-30T09:09:09.551Z,13.70
2019-03-30T09:11:43.297Z,14.00
2019-03-30T09:14:12.640Z,13.80
2019-03-30T09:16:43.442Z,13.90
2019-03-30T09:19:14.361Z,14.20
2019-03-30T09:21:45.107Z,14.50
2019-03-30T09:24:16.003Z,14.80
2019-03-30T09:26:46.784Z,14.90
2019-03-30T09:29:17.653Z,15.40
2019-03-30T09:31:48.518Z,15.60
2019-03-30T09:34:19.399Z,15.60
2019-03-30T09:36:50.537Z,15.60
2019-03-30T09:39:21.450Z,15.80
2019-03-30T09:41:52.218Z,15.50
2019-03-30T09:44:22.993Z,15.50
2019-03-30T09:46:53.790Z,15.60
2019-03-30T09:49:25.396Z,15.30
2019-03-30T09:51:56.185Z,15.40
2019-03-30T09:54:26.873Z,15.70
2019-03-30T09:56:57.757Z,16.00
2019-03-30T09:59:29.017Z,15.90
2019-03-30T10:01:59.818Z,16.30
2019-03-30T10:04:30.628Z,16.00
2019-03-30T10:07:01.410Z,16.00
2019-03-30T10:09:32.213Z,16.10
2019-03-30T10:12:03.158Z,16.30
2019-03-30T10:14:34.018Z,16.50
2019-03-30T10:17:04.895Z,16.70
2019-03-30T10:19:35.780Z,16.90
2019-03-30T10:22:06.668Z,16.70
2019-03-30T10:24:38.626Z,16.80
2019-03-30T10:27:09.551Z,16.70
2019-03-30T10:29:40.237Z,16.80
2019-03-30T10:32:11.097Z,16.70
2019-03-30T10:34:41.929Z,16.60
2019-03-30T10:37:13.293Z,17.10
2019-03-30T10:39:44.122Z,17.20
2019-03-30T10:42:15.685Z,17.10
2019-03-30T10:44:46.417Z,16.70
2019-03-30T10:47:17.193Z,17.10
2019-03-30T10:49:48.082Z,17.70
2019-03-30T10:52:18.828Z,17.90
2019-03-30T10:54:52.953Z,18.10
2019-03-30T10:57:23.429Z,18.20
2019-03-30T10:59:55.640Z,18.30
2019-03-30T11:02:26.517Z,18.70
2019-03-30T11:04:57.225Z,18.90
2019-03-30T11:07:27.928Z,19.40
2019-03-30T11:09:58.700Z,19.90
2019-03-30T11:12:29.488Z,19.20
2019-03-30T11:15:00.383Z,19.50
2019-03-30T11:17:31.169Z,19.80
2019-03-30T11:20:02.075Z,20.50
2019-03-30T11:22:32.789Z,20.90
2019-03-30T11:25:07.948Z,21.50
2019-03-30T11:27:36.147Z,20.80
2019-03-30T11:30:07.715Z,21.70
2019-03-30T11:32:38.615Z,22.90
2019-03-30T11:35:09.625Z,23.10
2019-03-30T11:37:40.513Z,23.40
2019-03-30T11:40:11.365Z,22.90
2019-03-30T11:42:43.083Z,22.20
2019-03-30T11:45:14.497Z,22.50
2019-03-30T11:47:45.269Z,23.30
2019-03-30T11:50:16.129Z,24.10
2019-03-30T11:52:47.009Z,24.60
2019-03-30T11:55:22.145Z,24.50
2019-03-30T11:57:50.482Z,23.40
2019-03-30T12:00:21.424Z,22.80
2019-03-30T12:02:52.257Z,23.20
2019-03-30T12:05:23.204Z,22.90
2019-03-30T12:07:55.240Z,23.10
2019-03-30T12:10:26.741Z,23.90
2019-03-30T12:12:57.655Z,23.60
2019-03-30T12:15:29.166Z,24.20
2019-03-30T12:18:00.018Z,24.30
2019-03-30T12:20:30.804Z,25.10
2019-03-30T12:23:01.663Z,24.30
2019-03-30T12:25:36.008Z,24.90
2019-03-30T12:28:04.886Z,24.40
2019-03-30T12:30:35.731Z,25.00
2019-03-30T12:33:06.603Z,25.80
2019-03-30T12:35:37.483Z,26.30
2019-03-30T12:38:08.319Z,26.40
2019-03-30T12:40:39.178Z,26.20
2019-03-30T12:43:10.045Z,25.10
2019-03-30T12:45:41.011Z,25.40
2019-03-30T12:48:11.879Z,25.60
2019-03-30T12:50:43.798Z,26.50
2019-03-30T12:53:14.674Z,26.60
2019-03-30T12:55:49.498Z,26.90
2019-03-30T12:58:17.883Z,27.20
2019-03-30T13:00:48.784Z,27.90
2019-03-30T13:03:19.667Z,26.20
2019-03-30T13:05:50.518Z,25.60
2019-03-30T13:08:22.366Z,26.40
2019-03-30T13:10:53.217Z,26.00
2019-03-30T13:13:23.951Z,25.50
2019-03-30T13:15:54.726Z,25.50
2019-03-30T13:18:25.500Z,26.30
2019-03-30T13:20:57.521Z,27.00
2019-03-30T13:23:28.305Z,27.40
2019-03-30T13:26:03.812Z,27.60
2019-03-30T13:28:32.186Z,28.30
2019-03-30T13:31:03.015Z,28.10
2019-03-30T13:33:33.776Z,26.90
2019-03-30T13:36:04.855Z,28.10
2019-03-30T13:38:35.569Z,28.80
2019-03-30T13:41:06.258Z,28.60
2019-03-30T13:43:40.266Z,28.50
2019-03-30T13:46:11.197Z,28.50
2019-03-30T13:48:41.985Z,26.70
2019-03-30T13:51:14.047Z,26.00
2019-03-30T13:53:44.818Z,26.40
2019-03-30T13:56:17.419Z,26.20
2019-03-30T13:58:48.128Z,25.70
2019-03-30T14:01:19.052Z,24.80
2019-03-30T14:03:49.816Z,23.30
2019-03-30T14:06:20.584Z,23.40
2019-03-30T14:08:52.551Z,23.50
2019-03-30T14:11:23.461Z,24.30
2019-03-30T14:13:54.149Z,25.00
2019-03-30T14:16:24.920Z,25.30
2019-03-30T14:18:55.697Z,24.80
2019-03-30T14:21:26.405Z,24.40
2019-03-30T14:23:57.186Z,24.30
2019-03-30T14:26:31.569Z,23.60
2019-03-30T14:29:01.453Z,23.50
2019-03-30T14:31:32.317Z,23.20
2019-03-30T14:34:03.110Z,23.00
2019-03-30T14:36:33.935Z,23.30
2019-03-30T14:39:07.234Z,23.20
2019-03-30T14:41:38.101Z,23.70
2019-03-30T14:44:08.859Z,23.50
2019-03-30T14:46:39.703Z,23.90
2019-03-30T14:49:10.489Z,23.80
2019-03-30T14:51:41.292Z,23.40
2019-03-30T14:54:12.080Z,23.00
2019-03-30T14:56:45.869Z,22.40
2019-03-30T14:59:15.530Z,23.20
2019-03-30T15:01:46.304Z,23.50
2019-03-30T15:04:17.237Z,24.70
2019-03-30T15:06:48.088Z,25.30
2019-03-30T15:09:18.774Z,25.40
2019-03-30T15:11:49.570Z,26.10
2019-03-30T15:14:20.396Z,26.30
2019-03-30T15:16:51.228Z,25.60
2019-03-30T15:19:21.983Z,25.20
2019-03-30T15:21:52.851Z,25.40
2019-03-30T15:24:23.699Z,24.70
2019-03-30T15:27:00.189Z,24.70
2019-03-30T15:29:27.027Z,25.00
2019-03-30T15:31:57.901Z,25.00
2019-03-30T15:34:28.821Z,24.30
2019-03-30T15:37:00.602Z,23.80
2019-03-30T15:39:31.501Z,23.80
2019-03-30T15:42:03.412Z,23.60
2019-03-30T15:44:34.313Z,23.80
2019-03-30T15:47:05.177Z,22.50
2019-03-30T15:49:35.936Z,21.70
2019-03-30T15:52:13.826Z,21.20
2019-03-30T15:54:39.327Z,20.70
2019-03-30T15:57:14.203Z,20.60
2019-03-30T15:59:42.971Z,20.60
2019-03-30T16:02:14.090Z,20.60
2019-03-30T16:04:44.955Z,20.70
2019-03-30T16:07:16.729Z,20.60
2019-03-30T16:09:47.596Z,20.30
2019-03-30T16:12:18.367Z,20.50
2019-03-30T16:14:49.222Z,20.60
2019-03-30T16:17:20.022Z,20.40
2019-03-30T16:19:50.885Z,20.10
2019-03-30T16:22:21.658Z,20.10
2019-03-30T16:24:53.552Z,19.90
2019-03-30T16:27:29.146Z,20.10
2019-03-30T16:29:58.887Z,19.80
2019-03-30T16:32:29.887Z,19.60
2019-03-30T16:35:01.709Z,19.20
2019-03-30T16:37:32.474Z,19.00
2019-03-30T16:40:03.404Z,19.00
2019-03-30T16:42:39.067Z,18.50
2019-03-30T16:45:10.080Z,18.60
2019-03-30T16:47:40.944Z,18.30
2019-03-30T16:50:13.219Z,18.30
2019-03-30T16:52:44.074Z,18.30
2019-03-30T16:55:15.098Z,18.50
2019-03-30T16:57:45.900Z,18.40
2019-03-30T17:00:18.332Z,18.60
2019-03-30T17:02:49.025Z,18.70
2019-03-30T17:05:20.095Z,18.90
2019-03-30T17:07:50.924Z,18.70
2019-03-30T17:10:21.805Z,18.40
2019-03-30T17:12:52.563Z,18.00
2019-03-30T17:15:23.331Z,17.90
2019-03-30T17:17:54.024Z,17.60
2019-03-30T17:20:24.868Z,17.50
2019-03-30T17:22:58.694Z,17.50
2019-03-30T17:25:29.591Z,17.40
2019-03-30T17:28:00.381Z,17.20
2019-03-30T17:30:31.295Z,17.00
2019-03-30T17:33:02.689Z,16.60
2019-03-30T17:35:33.645Z,16.40
2019-03-30T17:38:04.639Z,16.30
2019-03-30T17:40:35.743Z,16.00
2019-03-30T17:43:07.841Z,16.00
2019-03-30T17:45:38.555Z,15.90
2019-03-30T17:48:09.376Z,15.60
2019-03-30T17:50:40.230Z,15.50
2019-03-30T17:53:11.078Z,15.50
2019-03-30T17:55:42.610Z,15.40
2019-03-30T17:58:13.787Z,15.50
2019-03-30T18:00:44.860Z,15.50
2019-03-30T18:03:15.795Z,15.30
2019-03-30T18:05:46.571Z,15.30
2019-03-30T18:08:18.218Z,15.30
2019-03-30T18:10:49.076Z,15.10
2019-03-30T18:13:19.820Z,14.90
2019-03-30T18:15:50.733Z,14.90
2019-03-30T18:18:21.500Z,14.80
2019-03-30T18:20:55.082Z,14.80
2019-03-30T18:23:24.989Z,14.70
2019-03-30T18:25:55.856Z,14.50
2019-03-30T18:28:27.693Z,14.60
2019-03-30T18:30:58.785Z,14.60
2019-03-30T18:33:30.121Z,14.50
2019-03-30T18:36:00.988Z,14.40
2019-03-30T18:38:36.393Z,14.40
2019-03-30T18:41:05.990Z,14.40
2019-03-30T18:43:36.985Z,14.40
2019-03-30T18:46:07.856Z,14.40
2019-03-30T18:48:38.628Z,14.30
2019-03-30T18:51:09.552Z,14.40
2019-03-30T18:53:40.802Z,14.30
2019-03-30T18:56:11.767Z,14.20
2019-03-30T18:58:42.678Z,14.10
2019-03-30T19:01:13.449Z,14.10
2019-03-30T19:03:44.295Z,14.10
2019-03-30T19:06:15.147Z,14.00
2019-03-30T19:08:45.925Z,13.80
2019-03-30T19:11:16.741Z,13.70
2019-03-30T19:13:47.480Z,13.70
2019-03-30T19:16:19.482Z,13.60
2019-03-30T19:18:50.264Z,13.60
2019-03-30T19:21:21.034Z,13.60
2019-03-30T19:23:51.942Z,13.60
2019-03-30T19:26:22.707Z,13.60
2019-03-30T19:28:56.668Z,13.60
2019-03-30T19:31:26.208Z,13.60
2019-03-30T19:34:00.356Z,13.50
2019-03-30T19:36:31.116Z,13.50
2019-03-30T19:39:01.919Z,13.60
2019-03-30T19:41:32.685Z,13.60
2019-03-30T19:44:04.377Z,13.70
2019-03-30T19:46:35.146Z,13.70
2019-03-30T19:49:08.261Z,13.60
2019-03-30T19:51:39.255Z,13.60
2019-03-30T19:54:10.050Z,13.50
2019-03-30T19:56:40.970Z,13.50
2019-03-30T19:59:11.756Z,13.40
2019-03-30T20:01:42.845Z,13.40
2019-03-30T20:04:13.630Z,13.30
2019-03-30T20:06:44.406Z,13.30
2019-03-30T20:09:15.267Z,13.30
2019-03-30T20:11:46.181Z,13.20
2019-03-30T20:14:16.950Z,13.20
2019-03-30T20:16:47.819Z,13.20
2019-03-30T20:19:18.597Z,13.10
2019-03-30T20:21:49.378Z,13.10
2019-03-30T20:24:20.114Z,13.10
2019-03-30T20:26:50.962Z,13.10
2019-03-30T20:29:25.645Z,13.10
2019-03-30T20:31:55.221Z,13.00
2019-03-30T20:34:25.986Z,13.00
2019-03-30T20:36:56.857Z,13.00
2019-03-30T20:39:27.656Z,12.90
2019-03-30T20:41:58.955Z,12.60
2019-03-30T20:44:29.767Z,12.40
2019-03-30T20:47:01.545Z,12.30
2019-03-30T20:49:32.363Z,12.40
2019-03-30T20:52:05.033Z,12.20
2019-03-30T20:54:35.995Z,11.90
2019-03-30T20:57:06.903Z,11.70
2019-03-30T20:59:40.202Z,11.80
2019-03-30T21:02:11.365Z,11.50
2019-03-30T21:04:42.232Z,11.60
2019-03-30T21:07:13.096Z,11.50
2019-03-30T21:09:43.874Z,11.40
2019-03-30T21:12:14.634Z,11.40
2019-03-30T21:14:45.786Z,11.20
2019-03-30T21:17:17.281Z,11.20
2019-03-30T21:19:48.007Z,11.30
2019-03-30T21:22:18.714Z,11.40
2019-03-30T21:24:49.564Z,11.60
2019-03-30T21:27:20.309Z,11.60
2019-03-30T21:29:54.832Z,11.60
2019-03-30T21:32:23.628Z,11.60
2019-03-30T21:34:55.988Z,11.60
2019-03-30T21:37:26.770Z,11.40
2019-03-30T21:39:57.603Z,11.20
2019-03-30T21:42:28.494Z,11.30
2019-03-30T21:44:59.707Z,11.40
2019-03-30T21:47:31.380Z,11.50
2019-03-30T21:50:02.497Z,11.60
2019-03-30T21:52:33.334Z,11.60
2019-03-30T21:55:04.381Z,11.50
2019-03-30T21:57:36.269Z,11.30
2019-03-30T22:00:11.032Z,11.20
2019-03-30T22:02:42.529Z,11.10
2019-03-30T22:05:13.498Z,11.10
2019-03-30T22:07:44.549Z,11.20
2019-03-30T22:10:23.469Z,11.30
2019-03-30T22:12:54.714Z,11.40
2019-03-30T22:15:29.452Z,11.40
2019-03-30T22:18:00.313Z,11.40
2019-03-30T22:20:31.188Z,11.30
2019-03-30T22:23:01.970Z,11.30
2019-03-30T22:25:32.750Z,11.20
2019-03-30T22:28:03.586Z,11.10
2019-03-30T22:30:34.349Z,11.10
2019-03-30T22:33:05.261Z,11.10
2019-03-30T22:35:37.233Z,11.20
2019-03-30T22:38:07.937Z,11.30
2019-03-30T22:40:41.402Z,11.20
2019-03-30T22:43:11.403Z,11.10
2019-03-30T22:45:42.267Z,11.10
2019-03-30T22:48:13.125Z,11.00
2019-03-30T22:50:43.929Z,11.00
2019-03-30T22:53:14.745Z,11.00
2019-03-30T22:55:45.547Z,11.10
2019-03-30T22:58:16.303Z,11.00
2019-03-30T23:00:55.408Z,11.00
2019-03-30T23:03:26.098Z,10.90
2019-03-30T23:05:56.880Z,11.00
2019-03-30T23:08:27.733Z,10.90
2019-03-30T23:10:58.590Z,10.90
2019-03-30T23:13:29.320Z,10.70
2019-03-30T23:16:00.413Z,10.50
2019-03-30T23:18:31.265Z,10.40
2019-03-30T23:21:02.045Z,10.50
2019-03-30T23:23:32.902Z,10.40
2019-03-30T23:26:03.830Z,10.50
2019-03-30T23:28:35.749Z,10.50
2019-03-30T23:31:06.798Z,10.50
2019-03-30T23:33:37.693Z,10.40
2019-03-30T23:36:09.487Z,10.30
2019-03-30T23:38:40.285Z,10.70
2019-03-30T23:41:12.034Z,10.60
2019-03-30T23:43:42.872Z,10.50
2019-03-30T23:46:13.666Z,10.40
2019-03-30T23:48:44.421Z,10.30
2019-03-30T23:51:15.242Z,10.30
2019-03-30T23:53:46.010Z,10.30
2019-03-30T23:56:23.045Z,10.30
2019-03-30T23:58:54.147Z,10.30
